createdAt,value
2022-10-12T00:01:07.200Z,2.10
2022-10-12T00:03:54.837Z,1.97
2022-10-12T00:06:40.456Z,1.60
2022-10-12T00:09:25.951Z,1.83
2022-10-12T00:12:11.397Z,1.33
2022-10-12T00:14:57.480Z,2.00
2022-10-12T00:17:43.669Z,2.22
2022-10-12T00:20:31.954Z,1.73
2022-10-12T00:23:17.341Z,1.60
2022-10-12T00:26:23.494Z,1.70
2022-10-12T00:29:09.576Z,1.30
2022-10-12T00:31:55.557Z,1.60
2022-10-12T00:34:41.239Z,1.83
2022-10-12T00:37:26.743Z,1.67
2022-10-12T00:40:12.524Z,1.90
2022-10-12T00:42:58.729Z,1.53
2022-10-12T00:45:44.560Z,1.80
2022-10-12T00:48:31.352Z,1.80
2022-10-12T00:51:19.875Z,2.33
2022-10-12T00:54:09.829Z,1.60
2022-10-12T00:56:57.515Z,1.40
2022-10-12T00:59:55.014Z,1.67
2022-10-12T01:02:42.728Z,1.80
2022-10-12T01:05:28.502Z,2.33
2022-10-12T01:08:13.961Z,1.63
2022-10-12T01:10:59.387Z,1.80
2022-10-12T01:13:45.265Z,2.17
2022-10-12T01:16:41.465Z,2.20
2022-10-12T01:20:01.861Z,1.50
2022-10-12T01:23:15.940Z,1.70
2022-10-12T01:26:17.415Z,1.52
2022-10-12T01:29:38.935Z,2.15
2022-10-12T01:32:56.628Z,1.65
2022-10-12T01:36:03.522Z,1.40
2022-10-12T01:39:04.589Z,1.80
2022-10-12T01:42:00.772Z,1.55
2022-10-12T01:44:46.660Z,2.08
2022-10-12T01:47:33.443Z,1.40
2022-10-12T01:50:21.892Z,1.73
2022-10-12T01:53:35.444Z,1.60
2022-10-12T01:56:33.413Z,1.10
2022-10-12T01:59:31.119Z,1.75
2022-10-12T02:02:34.937Z,1.60
2022-10-12T02:05:43.522Z,1.55
2022-10-12T02:08:35.815Z,1.90
2022-10-12T02:11:26.744Z,1.65
2022-10-12T02:14:22.810Z,2.20
2022-10-12T02:17:12.935Z,1.60
2022-10-12T02:20:01.538Z,1.70
2022-10-12T02:22:50.297Z,1.90
2022-10-12T02:25:35.818Z,1.52
2022-10-12T02:28:26.453Z,1.80
2022-10-12T02:31:14.980Z,1.98
2022-10-12T02:34:12.414Z,1.55
2022-10-12T02:37:10.917Z,1.60
2022-10-12T02:40:07.851Z,1.25
2022-10-12T02:43:10.005Z,1.20
2022-10-12T02:46:00.699Z,1.42
2022-10-12T02:48:49.139Z,1.33
2022-10-12T02:51:36.542Z,1.73
2022-10-12T02:54:22.152Z,1.60
2022-10-12T02:57:07.742Z,1.95
2022-10-12T02:59:53.337Z,1.50
2022-10-12T03:02:38.952Z,1.48
2022-10-12T03:05:24.504Z,1.98
2022-10-12T03:08:10.247Z,1.42
2022-10-12T03:11:02.384Z,1.67
2022-10-12T03:13:47.861Z,1.35
2022-10-12T03:16:33.164Z,1.27
2022-10-12T03:19:18.717Z,1.50
2022-10-12T03:22:04.100Z,1.63
2022-10-12T03:24:49.742Z,1.33
2022-10-12T03:27:35.880Z,1.70
2022-10-12T03:30:21.668Z,1.40
2022-10-12T03:33:06.973Z,1.38
2022-10-12T03:35:52.533Z,1.30
2022-10-12T03:38:37.937Z,1.45
2022-10-12T03:41:23.689Z,1.63
2022-10-12T03:44:09.323Z,1.30
2022-10-12T03:46:54.798Z,1.60
2022-10-12T03:52:22.391Z,1.42
2022-10-12T03:55:08.378Z,1.65
2022-10-12T03:57:54.002Z,1.88
2022-10-12T04:00:39.352Z,1.45
2022-10-12T04:03:24.566Z,1.40
2022-10-12T04:06:10.256Z,1.42
2022-10-12T04:08:55.710Z,1.27
2022-10-12T04:11:41.396Z,1.88
2022-10-12T04:14:26.989Z,1.65
2022-10-12T04:17:14.700Z,2.03
2022-10-12T04:20:00.104Z,1.55
2022-10-12T04:22:45.424Z,1.60
2022-10-12T04:25:30.825Z,1.65
2022-10-12T04:28:16.131Z,1.57
2022-10-12T04:31:01.917Z,1.30
2022-10-12T04:33:47.687Z,1.80
2022-10-12T04:36:33.003Z,1.80
2022-10-12T04:39:18.737Z,1.08
2022-10-12T04:42:06.714Z,1.60
2022-10-12T04:44:52.041Z,1.80
2022-10-12T04:47:38.265Z,1.40
2022-10-12T04:50:29.020Z,1.40
2022-10-12T04:53:15.323Z,1.30
2022-10-12T04:56:05.854Z,1.67
2022-10-12T04:58:51.216Z,1.60
2022-10-12T05:01:36.713Z,0.82
2022-10-12T05:04:22.225Z,1.33
2022-10-12T05:07:07.747Z,1.60
2022-10-12T05:09:53.623Z,1.40
2022-10-12T05:12:39.425Z,1.70
2022-10-12T05:15:25.135Z,1.48
2022-10-12T05:18:11.069Z,1.20
2022-10-12T05:20:57.286Z,1.40
2022-10-12T05:23:42.719Z,1.47
2022-10-12T05:26:28.300Z,1.33
2022-10-12T05:29:13.865Z,1.10
2022-10-12T05:31:59.150Z,1.48
2022-10-12T05:34:44.843Z,1.60
2022-10-12T05:37:30.117Z,1.30
2022-10-12T05:40:15.638Z,1.70
2022-10-12T05:43:01.151Z,1.40
2022-10-12T05:45:46.610Z,1.15
2022-10-12T05:48:33.223Z,1.45
2022-10-12T05:51:18.684Z,2.05
2022-10-12T05:54:04.593Z,1.65
2022-10-12T05:56:50.075Z,1.80
2022-10-12T05:59:36.475Z,1.30
2022-10-12T06:02:22.178Z,1.40
2022-10-12T06:05:07.615Z,1.45
2022-10-12T06:07:52.926Z,1.33
2022-10-12T06:13:35.067Z,1.30
2022-10-12T06:16:20.725Z,1.90
2022-10-12T06:19:05.944Z,1.60
2022-10-12T06:21:51.221Z,1.63
2022-10-12T06:24:37.457Z,1.60
2022-10-12T06:27:22.777Z,1.92
2022-10-12T06:30:08.607Z,1.60
2022-10-12T06:32:54.319Z,1.60
2022-10-12T06:35:39.931Z,1.80
2022-10-12T06:38:25.306Z,1.60
2022-10-12T06:41:10.915Z,1.60
2022-10-12T06:43:56.657Z,1.73
2022-10-12T06:46:42.297Z,1.98
2022-10-12T06:49:27.712Z,1.58
2022-10-12T06:52:12.998Z,1.83
2022-10-12T06:54:58.593Z,1.73
2022-10-12T06:57:44.399Z,2.10
2022-10-12T07:00:29.621Z,1.95
2022-10-12T07:03:15.029Z,1.33
2022-10-12T07:06:08.869Z,1.75
2022-10-12T07:08:55.239Z,1.90
2022-10-12T07:11:40.889Z,1.48
2022-10-12T07:14:26.253Z,1.60
2022-10-12T07:17:11.808Z,1.73
2022-10-12T07:19:57.302Z,1.60
2022-10-12T07:22:44.409Z,2.10
2022-10-12T07:25:30.469Z,2.28
2022-10-12T07:28:17.519Z,2.30
2022-10-12T07:31:07.751Z,2.00
2022-10-12T07:33:54.069Z,2.38
2022-10-12T07:36:57.974Z,1.45
2022-10-12T07:39:44.621Z,1.77
2022-10-12T07:42:30.024Z,2.13
2022-10-12T07:45:15.446Z,1.85
2022-10-12T07:48:00.815Z,1.90
2022-10-12T07:50:46.232Z,1.50
2022-10-12T07:53:33.816Z,1.50
2022-10-12T07:56:19.147Z,1.70
2022-10-12T07:59:04.749Z,1.35
2022-10-12T08:01:50.273Z,1.75
2022-10-12T08:04:35.807Z,1.60
2022-10-12T08:07:21.420Z,1.87
2022-10-12T08:10:07.367Z,1.38
2022-10-12T08:12:52.845Z,1.70
2022-10-12T08:15:38.202Z,1.20
2022-10-12T08:18:23.713Z,1.27
2022-10-12T08:21:11.371Z,1.27
2022-10-12T08:23:56.643Z,1.40
2022-10-12T08:26:41.962Z,1.73
2022-10-12T08:29:27.478Z,1.80
2022-10-12T08:32:13.225Z,1.67
2022-10-12T08:34:58.869Z,1.73
2022-10-12T08:37:44.090Z,1.10
2022-10-12T08:40:32.607Z,1.90
2022-10-12T08:43:48.032Z,1.40
2022-10-12T08:46:33.929Z,1.50
2022-10-12T08:49:24.940Z,1.60
2022-10-12T08:52:28.413Z,1.33
2022-10-12T08:55:35.452Z,1.70
2022-10-12T08:58:30.293Z,1.50
2022-10-12T09:01:18.411Z,1.25
2022-10-12T09:04:37.199Z,1.20
2022-10-12T09:07:51.307Z,1.10
2022-10-12T09:10:49.695Z,1.00
2022-10-12T09:13:46.769Z,1.15
2022-10-12T09:16:35.632Z,1.05
2022-10-12T09:19:27.955Z,1.30
2022-10-12T09:22:19.772Z,1.17
2022-10-12T09:25:13.858Z,1.23
2022-10-12T09:28:14.066Z,1.00
2022-10-12T09:31:50.072Z,1.50
2022-10-12T09:34:35.913Z,1.30
2022-10-12T09:37:25.049Z,1.15
2022-10-12T09:40:20.207Z,1.07
2022-10-12T09:43:05.732Z,1.20
2022-10-12T09:45:51.690Z,0.83
2022-10-12T09:48:37.214Z,0.77
2022-10-12T09:51:23.176Z,0.80
2022-10-12T09:54:18.186Z,0.80
2022-10-12T09:57:03.835Z,0.90
2022-10-12T09:59:50.118Z,1.20
2022-10-12T10:02:47.920Z,0.90
2022-10-12T10:05:35.821Z,0.85
2022-10-12T10:08:23.544Z,1.33
2022-10-12T10:11:38.277Z,1.38
2022-10-12T10:14:24.171Z,1.77
2022-10-12T10:17:15.921Z,1.42
2022-10-12T10:20:05.275Z,1.45
2022-10-12T10:22:52.091Z,1.10
2022-10-12T10:25:37.907Z,1.27
2022-10-12T10:28:27.724Z,1.05
2022-10-12T10:31:13.315Z,1.10
2022-10-12T10:34:10.950Z,1.23
2022-10-12T10:36:56.828Z,1.08
2022-10-12T10:39:48.756Z,0.90
2022-10-12T10:42:34.862Z,1.00
2022-10-12T10:45:29.317Z,1.17
2022-10-12T10:48:21.251Z,1.33
2022-10-12T10:51:07.331Z,1.80
2022-10-12T10:53:52.974Z,1.48
2022-10-12T10:56:38.471Z,1.00
2022-10-12T10:59:26.469Z,0.83
2022-10-12T11:02:25.267Z,1.02
2022-10-12T11:05:16.674Z,0.88
2022-10-12T11:08:15.529Z,0.70
2022-10-12T11:11:05.872Z,1.42
2022-10-12T11:14:19.026Z,1.00
2022-10-12T11:17:12.300Z,1.10
2022-10-12T11:20:22.171Z,0.70
2022-10-12T11:23:41.471Z,1.60
2022-10-12T11:26:36.010Z,0.88
2022-10-12T11:29:21.432Z,1.30
2022-10-12T11:32:31.291Z,1.07
2022-10-12T11:35:25.688Z,0.70
2022-10-12T11:38:23.423Z,1.05
2022-10-12T11:44:37.279Z,1.00
2022-10-12T11:47:39.144Z,0.60
2022-10-12T11:50:35.389Z,1.02
2022-10-12T11:53:27.252Z,1.13
2022-10-12T11:56:15.644Z,0.80
2022-10-12T11:59:24.830Z,0.60
2022-10-12T12:02:13.307Z,1.05
2022-10-12T12:04:59.056Z,0.70
2022-10-12T12:07:53.768Z,0.68
2022-10-12T12:11:03.679Z,1.02
2022-10-12T12:13:49.022Z,0.88
2022-10-12T12:16:42.946Z,0.98
2022-10-12T12:19:37.360Z,0.75
2022-10-12T12:22:30.465Z,0.80
2022-10-12T12:25:26.030Z,0.90
2022-10-12T12:28:21.697Z,1.40
2022-10-12T12:31:13.389Z,1.13
2022-10-12T12:34:06.819Z,1.10
2022-10-12T12:36:53.235Z,0.80
2022-10-12T12:39:40.948Z,1.00
2022-10-12T12:42:32.117Z,1.00
2022-10-12T12:45:32.551Z,0.60
2022-10-12T12:48:40.797Z,0.85
2022-10-12T12:51:37.426Z,1.00
2022-10-12T12:54:22.921Z,0.90
2022-10-12T12:57:48.952Z,0.82
2022-10-12T13:04:08.878Z,0.85
2022-10-12T13:07:39.295Z,0.82
2022-10-12T13:10:48.151Z,0.70
2022-10-12T13:13:58.088Z,0.90
2022-10-12T13:20:24.986Z,0.50
2022-10-12T13:23:17.760Z,0.85
2022-10-12T13:26:08.182Z,0.90
2022-10-12T13:28:55.532Z,1.05
2022-10-12T13:31:46.550Z,0.80
2022-10-12T13:34:41.409Z,1.07
2022-10-12T13:37:31.351Z,0.80
2022-10-12T13:40:37.916Z,0.80
2022-10-12T13:43:29.762Z,0.77
2022-10-12T13:46:42.520Z,0.73
2022-10-12T13:49:30.028Z,0.95
2022-10-12T13:52:15.358Z,1.00
2022-10-12T13:55:01.607Z,0.40
2022-10-12T13:57:49.978Z,1.02
2022-10-12T14:00:36.104Z,0.73
2022-10-12T14:03:27.256Z,0.70
2022-10-12T14:06:32.233Z,0.80
2022-10-12T14:09:21.569Z,0.80
2022-10-12T14:12:08.472Z,0.95
2022-10-12T14:14:54.346Z,0.52
2022-10-12T14:17:47.216Z,1.00
2022-10-12T14:20:38.458Z,0.70
2022-10-12T14:23:24.948Z,0.60
2022-10-12T14:26:23.883Z,0.90
2022-10-12T14:29:33.071Z,0.70
2022-10-12T14:32:26.293Z,1.17
2022-10-12T14:35:30.232Z,0.70
2022-10-12T14:38:43.847Z,1.20
2022-10-12T14:41:49.024Z,0.70
2022-10-12T14:44:43.075Z,0.90
2022-10-12T14:47:34.667Z,1.00
2022-10-12T14:50:22.137Z,0.55
2022-10-12T14:53:11.544Z,0.90
2022-10-12T14:55:57.091Z,0.75
2022-10-12T14:58:42.508Z,1.00
2022-10-12T15:01:27.976Z,0.80
2022-10-12T15:04:13.765Z,0.70
2022-10-12T15:06:59.162Z,0.98
2022-10-12T15:09:44.844Z,0.70
2022-10-12T15:12:30.853Z,0.73
2022-10-12T15:15:36.218Z,0.63
2022-10-12T15:18:21.689Z,0.75
2022-10-12T15:21:08.793Z,1.05
2022-10-12T15:23:54.084Z,0.63
2022-10-12T15:26:42.298Z,0.82
2022-10-12T15:29:27.899Z,1.08
2022-10-12T15:32:15.141Z,0.75
2022-10-12T15:35:01.242Z,0.75
2022-10-12T15:37:47.212Z,1.42
2022-10-12T15:40:34.241Z,0.90
2022-10-12T15:43:20.412Z,0.70
2022-10-12T15:46:05.724Z,0.75
2022-10-12T15:48:51.028Z,1.10
2022-10-12T15:51:40.538Z,0.80
2022-10-12T15:54:26.037Z,0.70
2022-10-12T15:57:12.343Z,0.70
2022-10-12T15:59:57.893Z,0.90
2022-10-12T16:02:43.526Z,0.80
2022-10-12T16:05:32.506Z,0.80
2022-10-12T16:08:17.783Z,1.25
2022-10-12T16:11:08.709Z,0.70
2022-10-12T16:13:56.673Z,0.98
2022-10-12T16:16:42.295Z,0.80
2022-10-12T16:19:27.631Z,1.30
2022-10-12T16:22:13.320Z,1.40
2022-10-12T16:24:58.713Z,0.90
2022-10-12T16:27:46.003Z,0.70
2022-10-12T16:30:31.856Z,0.65
2022-10-12T16:33:18.137Z,0.70
2022-10-12T16:36:09.035Z,0.80
2022-10-12T16:38:55.319Z,0.90
2022-10-12T16:41:40.566Z,0.77
2022-10-12T16:44:26.457Z,1.30
2022-10-12T16:47:12.373Z,0.82
2022-10-12T16:49:57.857Z,0.70
2022-10-12T16:52:43.455Z,1.15
2022-10-12T16:55:29.109Z,1.33
2022-10-12T16:58:14.693Z,1.27
2022-10-12T17:01:11.730Z,1.13
2022-10-12T17:03:57.649Z,1.10
2022-10-12T17:06:43.319Z,1.50
2022-10-12T17:09:28.867Z,0.97
2022-10-12T17:12:14.851Z,0.93
2022-10-12T17:15:00.389Z,1.73
2022-10-12T17:17:45.788Z,1.00
2022-10-12T17:20:31.281Z,0.80
2022-10-12T17:23:16.880Z,1.10
2022-10-12T17:26:02.446Z,0.80
2022-10-12T17:28:47.856Z,0.90
2022-10-12T17:31:34.518Z,1.00
2022-10-12T17:34:23.490Z,0.77
2022-10-12T17:37:12.828Z,1.52
2022-10-12T17:39:58.463Z,1.67
2022-10-12T17:42:44.013Z,1.10
2022-10-12T17:45:29.430Z,0.90
2022-10-12T17:48:16.021Z,1.23
2022-10-12T17:51:09.347Z,1.10
2022-10-12T17:53:54.815Z,0.90
2022-10-12T17:56:40.682Z,1.90
2022-10-12T17:59:26.357Z,1.83
2022-10-12T18:02:11.738Z,0.73
2022-10-12T18:04:57.111Z,0.90
2022-10-12T18:07:42.565Z,1.10
2022-10-12T18:10:28.677Z,1.10
2022-10-12T18:13:14.750Z,1.17
2022-10-12T18:16:00.544Z,1.70
2022-10-12T18:18:50.429Z,1.00
2022-10-12T18:21:36.905Z,1.30
2022-10-12T18:24:23.283Z,1.20
2022-10-12T18:27:08.987Z,1.10
2022-10-12T18:29:56.114Z,1.40
2022-10-12T18:32:41.489Z,1.45
2022-10-12T18:35:30.335Z,1.17
2022-10-12T18:38:15.972Z,1.65
2022-10-12T18:41:03.390Z,1.38
2022-10-12T18:43:49.780Z,1.50
2022-10-12T18:46:37.337Z,1.27
2022-10-12T18:49:23.256Z,0.95
2022-10-12T18:52:09.225Z,1.20
2022-10-12T18:54:54.721Z,1.00
2022-10-12T18:57:40.270Z,1.10
2022-10-12T19:00:26.028Z,1.27
2022-10-12T19:03:12.835Z,1.13
2022-10-12T19:06:06.936Z,1.40
2022-10-12T19:08:53.976Z,1.20
2022-10-12T19:11:39.415Z,0.80
2022-10-12T19:14:24.831Z,1.30
2022-10-12T19:17:10.144Z,1.30
2022-10-12T19:19:55.839Z,0.82
2022-10-12T19:22:41.492Z,1.60
2022-10-12T19:25:26.977Z,1.37
2022-10-12T19:28:12.758Z,0.93
2022-10-12T19:30:58.734Z,1.25
2022-10-12T19:33:44.261Z,0.75
2022-10-12T19:36:30.894Z,1.20
2022-10-12T19:39:19.682Z,1.40
2022-10-12T19:42:04.873Z,1.00
2022-10-12T19:44:50.497Z,1.10
2022-10-12T19:47:36.063Z,1.38
2022-10-12T19:50:21.586Z,1.25
2022-10-12T19:53:07.395Z,1.20
2022-10-12T19:55:57.890Z,0.90
2022-10-12T19:58:45.355Z,1.30
2022-10-12T20:01:34.712Z,1.60
2022-10-12T20:04:20.336Z,1.27
2022-10-12T20:07:05.714Z,1.13
2022-10-12T20:09:51.065Z,1.30
2022-10-12T20:12:36.719Z,1.38
2022-10-12T20:15:22.234Z,0.93
2022-10-12T20:18:07.810Z,1.10
2022-10-12T20:20:54.140Z,1.45
2022-10-12T20:23:41.442Z,1.55
2022-10-12T20:26:26.940Z,0.85
2022-10-12T20:29:12.282Z,1.00
2022-10-12T20:31:57.520Z,1.35
2022-10-12T20:34:42.845Z,1.55
2022-10-12T20:37:28.725Z,1.02
2022-10-12T20:40:14.138Z,1.23
2022-10-12T20:42:59.550Z,1.20
2022-10-12T20:45:45.129Z,0.95
2022-10-12T20:48:31.749Z,1.10
2022-10-12T20:51:23.674Z,1.17
2022-10-12T20:54:14.629Z,1.40
2022-10-12T20:57:00.355Z,1.48
2022-10-12T20:59:48.778Z,1.65
2022-10-12T21:02:34.305Z,1.70
2022-10-12T21:05:19.579Z,1.27
2022-10-12T21:08:05.005Z,2.03
2022-10-12T21:10:50.419Z,1.40
2022-10-12T21:13:41.482Z,1.27
2022-10-12T21:16:27.299Z,1.20
2022-10-12T21:19:15.225Z,1.25
2022-10-12T21:22:00.564Z,1.53
2022-10-12T21:24:46.300Z,1.25
2022-10-12T21:27:32.009Z,1.00
2022-10-12T21:30:17.700Z,1.52
2022-10-12T21:33:03.142Z,1.25
2022-10-12T21:35:48.656Z,1.40
2022-10-12T21:38:34.423Z,1.10
2022-10-12T21:41:22.220Z,1.45
2022-10-12T21:44:08.415Z,1.52
2022-10-12T21:46:53.868Z,1.25
2022-10-12T21:49:39.243Z,1.40
2022-10-12T21:52:24.860Z,1.30
2022-10-12T21:55:11.873Z,1.42
2022-10-12T21:57:57.251Z,1.30
2022-10-12T22:00:42.776Z,1.27
2022-10-12T22:03:28.262Z,1.50
2022-10-12T22:06:19.671Z,1.63
2022-10-12T22:09:07.864Z,1.10
2022-10-12T22:11:53.834Z,1.45
2022-10-12T22:14:39.593Z,1.15
2022-10-12T22:17:25.262Z,1.35
2022-10-12T22:20:10.967Z,1.27
2022-10-12T22:22:56.594Z,1.55
2022-10-12T22:25:42.187Z,1.40
2022-10-12T22:28:27.699Z,1.50
2022-10-12T22:31:15.423Z,1.27
2022-10-12T22:34:01.155Z,1.52
2022-10-12T22:36:46.580Z,1.42
2022-10-12T22:39:31.721Z,1.20
2022-10-12T22:42:17.533Z,1.88
2022-10-12T22:45:03.555Z,1.13
2022-10-12T22:47:48.945Z,1.13
2022-10-12T22:50:34.677Z,1.17
2022-10-12T22:53:21.339Z,1.27
2022-10-12T22:56:13.296Z,1.27
2022-10-12T22:59:03.829Z,1.48
2022-10-12T23:01:49.376Z,1.10
2022-10-12T23:04:35.102Z,2.30
2022-10-12T23:07:20.564Z,0.98
2022-10-12T23:10:06.623Z,1.15
2022-10-12T23:12:51.996Z,1.05
2022-10-12T23:15:37.573Z,1.60
2022-10-12T23:18:23.174Z,1.20
2022-10-12T23:21:11.981Z,1.73
2022-10-12T23:23:58.851Z,1.35
2022-10-12T23:26:44.328Z,1.00
2022-10-12T23:29:30.470Z,1.50
2022-10-12T23:32:16.204Z,1.47
2022-10-12T23:35:01.756Z,1.90
2022-10-12T23:37:47.445Z,1.15
2022-10-12T23:40:35.879Z,1.30
2022-10-12T23:43:21.718Z,1.55
2022-10-12T23:46:07.704Z,1.40
2022-10-12T23:48:53.292Z,1.10
2022-10-12T23:51:38.916Z,1.70
2022-10-12T23:54:24.313Z,0.90
2022-10-12T23:57:28.191Z,1.60
